• Join FlightAware (Why Join?)
  • Login
  • US Flag 
05:55PM EDT


 

Airport Tracker/Info


-or-


 

Live Flight TrackerFlight Track Log ✈ JBU237 ✈ 14-Sep-2013 ✈ KJFK - MDST / STI

Flight Track Log - Related Links

Times and Time Zones

All times are in EDT time to prevent confusion due to time zone crossing. See the JBU237 flight status page for this flight to view local times or setup timezone preferences in your user account.

Time Position Orientation Groundspeed Altitude Reporting Facility
EDT Latitude Longitude Course Direction KTS MPH feet Rate Location/Type
09:22PM 40.6333 -73.8333 100° East 168 193 1,700  Level New York TRACON
09:24PM 40.5417 -73.8706 197° South 223 257 6,000 2,580 Climbing New York Center
09:25PM 40.1628 -73.6887 128° Southeast  Level Estimated
09:25PM 40.5044 -73.7844 120° Southeast 250 288 9,000  Level New York Center
09:26PM 40.0436 -73.6664 125° Southeast  Level Estimated
09:26PM 40.4658 -73.6681 114° Southeast 290 334 11,200  Level New York Center
09:27PM 40.0219 -73.5116 100° East  Level FlightAware Approximate
09:27PM 40.4231 -73.5381 113° Southeast 353 406 13,400  Level New York Center
09:28PM 40.3589 -73.4267 127° Southeast 381 438 15,600 2,100 Climbing New York Center
09:29PM 40.2731 -73.3525 147° Southeast 393 452 17,600 1,980 Climbing New York Center
09:30PM 40.1539 -73.2803 155° Southeast 422 486 19,600 1,740 Climbing New York Center
09:31PM 40.0358 -73.2353 164° South 434 499 21,100 1,500 Climbing New York Center
09:32PM 39.9139 -73.1850 162° South 445 512 22,700 900 Climbing New York Center
09:33PM 39.7900 -73.1375 164° South 458 527 23,000 120 Climbing New York Center
09:34PM 39.6658 -73.0847 162° South 463 533 23,000 600 Level New York Center
09:35PM 39.5394 -73.0508 168° South 469 540 24,200 1,260 Climbing New York Center
09:36PM 39.4089 -73.0169 169° South 469 540 25,600 1,380 Climbing New York Center
09:37PM 39.2739 -72.9886 171° South 481 554 27,000 1,320 Climbing New York Center
09:38PM 39.1369 -72.9522 168° South 493 567 28,300 1,140 Climbing New York Center
09:39PM 39.0103 -72.9214 169° South 514 592 29,300 1,080 Climbing New York Center
09:40PM 38.8692 -72.8853 169° South 520 598 30,500 1,440 Climbing New York Center
09:41PM 38.7236 -72.8597 172° South 520 598 32,200 1,680 Climbing New York Center
09:42PM 38.5992 -72.8267 168° South 510 587 33,900 1,500 Climbing New York Center
09:43PM 38.4703 -72.7939 169° South 496 571 35,300 1,080 Climbing New York Center
09:44PM 38.3414 -72.7664 170° South 479 551 36,100 780 Climbing New York Center
09:45PM 38.2150 -72.7339 169° South 474 545 36,900 360 Climbing New York Center
09:46PM 38.0883 -72.6986 168° South 474 545 36,900  Level New York Center
09:47PM 37.9614 -72.6717 170° South 468 539 37,000  Climbing New York Center
09:48PM 37.8303 -72.6525 173° South 468 539 37,000  Level New York Center
09:49PM 37.7081 -72.6125 165° South 463 533 37,000  Level New York Center
09:50PM 37.5789 -72.5856 171° South 463 533 37,000  Level New York Center
09:51PM 37.4583 -72.5592 170° South 442 509 37,000 -60 Level New York Center
09:52PM 37.3336 -72.5300 169° South 442 509 36,900 -60 Descending New York Center
09:53PM 37.2092 -72.4983 169° South 443 510 36,900  Level New York Center
09:54PM 37.0989 -72.4722 169° South 443 510 36,900  Level New York Center
09:55PM 36.9761 -72.4433 169° South 434 499 37,000  Climbing New York Center
09:56PM 36.8578 -72.4172 170° South 439 505 37,000  Level New York Center
09:57PM 36.7369 -72.3914 170° South 444 511 37,000  Level New York Center
09:58PM 36.6200 -72.3967 182° South 437 503 37,000 420 Level New York Center
09:59PM 36.5033 -72.3992 181° South 431 496 37,900 720 Climbing New York Center
10:00PM 36.3886 -72.3992 180° South 420 483 38,500 540 Climbing New York Center
10:01PM 36.2781 -72.3994 180° South 420 483 39,000 180 Climbing New York Center
10:02PM 36.1631 -72.3994 180° South 415 478 38,900  Descending New York Center
10:03PM 36.0442 -72.4047 182° South 410 472 39,000  Climbing New York Center
10:04PM 35.9378 -72.4022 179° South 415 478 38,900  Descending New York Center
10:05PM 35.8189 -72.4050 181° South 415 478 39,000  Climbing New York Center
10:06PM 35.7042 -72.4025 179° South 421 484 39,000  Level New York Center
10:07PM 35.5894 -72.4053 181° South 421 484 39,000 -60 Level New York Center
10:08PM 35.4767 -72.4053 180° South 416 479 38,900 -60 Descending New York Center
10:09PM 35.3639 -72.4131 183° South 416 479 38,900  Level New York Center
10:10PM 35.2492 -72.4258 185° South 416 479 39,000  Climbing New York Center
10:11PM 35.1364 -72.4286 181° South 416 479 38,900 -60 Descending New York Center
10:12PM 35.0175 -72.4258 179° South 416 479 38,900  Level New York Center
10:13PM 34.9008 -72.4108 174° South 422 486 39,000 60 Climbing New York Center
10:13PM 35.0500 -72.4167 175° South 424 488 39,000  Level New York Oceanic (ODAPS)
10:21PM 33.9833 -72.3000 167° South 424 488 39,000  Level FlightAware Transoceanic
10:21PM 33.9833 -72.3000 167° South 415 478 39,000  Level New York Oceanic (ODAPS)
10:22PM 33.8680 -72.2684 167° South 424 488 39,000  Level FlightAware Transoceanic
10:23PM 33.7526 -72.2369 167° South 424 488 39,000  Level FlightAware Transoceanic
10:24PM 33.6372 -72.2055 167° South 424 488 39,000  Level FlightAware Transoceanic
10:25PM 33.5218 -72.1741 167° South 424 488 39,000  Level FlightAware Transoceanic
10:26PM 33.4064 -72.1429 167° South 424 488 39,000  Level FlightAware Transoceanic
10:27PM 33.2910 -72.1117 167° South 424 488 39,000  Level FlightAware Transoceanic
10:28PM 33.1935 -72.0855 167° South 415 478 39,000  Level FlightAware Transoceanic
10:29PM 33.0807 -72.0551 167° South 415 478 39,000  Level FlightAware Transoceanic
10:30PM 32.9678 -72.0249 167° South 415 478 39,000  Level FlightAware Transoceanic
10:31PM 32.8549 -71.9947 167° South 415 478 39,000  Level FlightAware Transoceanic
10:32PM 32.7420 -71.9646 167° South 415 478 39,000  Level FlightAware Transoceanic
10:33PM 32.6291 -71.9346 167° South 415 478 39,000  Level FlightAware Transoceanic
10:34PM 32.5162 -71.9046 167° South 415 478 39,000  Level FlightAware Transoceanic
10:35PM 32.4033 -71.8747 167° South 415 478 39,000  Level FlightAware Transoceanic
10:36PM 32.2904 -71.8450 167° South 415 478 39,000  Level FlightAware Transoceanic
10:37PM 32.1775 -71.8152 167° South 415 478 39,000  Level FlightAware Transoceanic
10:38PM 32.0646 -71.7856 167° South 415 478 39,000  Level FlightAware Transoceanic
10:39PM 31.9516 -71.7560 167° South 415 478 39,000  Level FlightAware Transoceanic
10:40PM 31.8387 -71.7265 168° South 415 478 39,000  Level FlightAware Transoceanic
10:41PM 31.7257 -71.6971 168° South 415 478 39,000  Level FlightAware Transoceanic
10:42PM 31.6128 -71.6677 168° South 415 478 39,000  Level FlightAware Transoceanic
10:43PM 31.4998 -71.6384 168° South 415 478 39,000  Level FlightAware Transoceanic
10:44PM 31.3869 -71.6092 168° South 415 478 39,000  Level FlightAware Transoceanic
10:45PM 31.2739 -71.5800 168° South 415 478 39,000  Level FlightAware Transoceanic
10:46PM 31.1609 -71.5510 168° South 415 478 39,000  Level FlightAware Transoceanic
10:47PM 31.0479 -71.5220 168° South 415 478 39,000  Level FlightAware Transoceanic
10:48PM 30.9349 -71.4930 168° South 415 478 39,000  Level FlightAware Transoceanic
10:49PM 30.8219 -71.4641 168° South 415 478 39,000  Level FlightAware Transoceanic
10:50PM 30.7089 -71.4353 168° South 415 478 39,000  Level FlightAware Transoceanic
10:51PM 30.5959 -71.4066 168° South 415 478 39,000  Level FlightAware Transoceanic
10:52PM 30.4829 -71.3779 168° South 415 478 39,000  Level FlightAware Transoceanic
10:53PM 30.3699 -71.3493 168° South 415 478 39,000  Level FlightAware Transoceanic
10:54PM 30.2568 -71.3208 168° South 415 478 39,000  Level FlightAware Transoceanic
10:55PM 30.1438 -71.2923 168° South 415 478 39,000  Level FlightAware Transoceanic
10:56PM 30.0308 -71.2639 168° South 415 478 39,000  Level FlightAware Transoceanic
10:57PM 29.9177 -71.2356 168° South 415 478 39,000  Level FlightAware Transoceanic
10:58PM 29.8047 -71.2073 168° South 415 478 39,000  Level FlightAware Transoceanic
10:59PM 29.6916 -71.1791 168° South 415 478 39,000  Level FlightAware Transoceanic
11:00PM 29.5785 -71.1509 168° South 415 478 39,000  Level FlightAware Transoceanic
11:01PM 29.4655 -71.1228 168° South 415 478 39,000  Level FlightAware Transoceanic
11:02PM 29.3524 -71.0948 168° South 415 478 39,000  Level FlightAware Transoceanic
11:03PM 29.2393 -71.0668 168° South 415 478 39,000  Level FlightAware Transoceanic
11:04PM 29.1262 -71.0389 168° South 415 478 39,000  Level FlightAware Transoceanic
11:05PM 29.0131 -71.0111 168° South 415 478 39,000  Level FlightAware Transoceanic
11:06PM 28.9000 -70.9833 168° South 415 478 39,000  Level FlightAware Transoceanic
11:07PM 28.7819 -70.9541 168° South 415 478 39,000  Level FlightAware Transoceanic
11:08PM 28.6638 -70.9249 168° South 415 478 39,000  Level FlightAware Transoceanic
11:08PM 28.9000 -70.9833 168° South 447 514 39,000  Level New York Oceanic (ODAPS)
11:09PM 28.5457 -70.8957 168° South 415 478 39,000  Level FlightAware Transoceanic
11:10PM 28.4276 -70.8667 168° South 415 478 39,000  Level FlightAware Transoceanic
11:11PM 28.3095 -70.8376 168° South 415 478 39,000  Level FlightAware Transoceanic
11:12PM 28.1914 -70.8087 168° South 415 478 39,000  Level FlightAware Transoceanic
11:13PM 28.0732 -70.7798 168° South 415 478 39,000  Level FlightAware Transoceanic
11:14PM 27.9256 -70.7438 168° South 447 514 39,000  Level FlightAware Transoceanic
11:15PM 27.8038 -70.7142 168° South 447 514 39,000  Level FlightAware Transoceanic
11:16PM 27.6819 -70.6846 168° South 447 514 39,000  Level FlightAware Transoceanic
11:17PM 27.5601 -70.6551 168° South 447 514 39,000  Level FlightAware Transoceanic
11:18PM 27.4382 -70.6257 168° South 447 514 39,000  Level FlightAware Transoceanic
11:19PM 27.3164 -70.5963 168° South 447 514 39,000  Level FlightAware Transoceanic
11:20PM 27.1945 -70.5670 168° South 447 514 39,000  Level FlightAware Transoceanic
11:21PM 27.0726 -70.5378 168° South 447 514 39,000  Level FlightAware Transoceanic
11:22PM 26.9508 -70.5086 168° South 447 514 39,000  Level FlightAware Transoceanic
11:23PM 26.8289 -70.4795 168° South 447 514 39,000  Level FlightAware Transoceanic
11:24PM 26.7070 -70.4504 168° South 447 514 39,000  Level FlightAware Transoceanic
11:25PM 26.5851 -70.4214 168° South 447 514 39,000  Level FlightAware Transoceanic
11:26PM 26.4632 -70.3925 168° South 447 514 39,000  Level FlightAware Transoceanic
11:27PM 26.3413 -70.3636 168° South 447 514 39,000  Level FlightAware Transoceanic
11:28PM 26.2194 -70.3348 168° South 447 514 39,000  Level FlightAware Transoceanic
11:29PM 26.0975 -70.3061 168° South 447 514 39,000  Level FlightAware Transoceanic
11:30PM 25.9756 -70.2774 168° South 447 514 39,000  Level FlightAware Transoceanic
11:31PM 25.8536 -70.2488 168° South 447 514 39,000  Level FlightAware Transoceanic
11:32PM 25.7317 -70.2202 168° South 447 514 39,000  Level FlightAware Transoceanic
11:33PM 25.6098 -70.1917 168° South 447 514 39,000  Level FlightAware Transoceanic
11:34PM 25.4878 -70.1632 168° South 447 514 39,000  Level FlightAware Transoceanic
11:34PM 25.4636 -70.1775 185° South 449 517 39,000  Level Miami Center
11:35PM 25.3659 -70.1348 168° South 447 514 39,000  Level FlightAware Transoceanic
11:35PM 25.3456 -70.1519 169° South 439 505 39,000  Level Miami Center
11:36PM 25.2439 -70.1065 168° South 447 514 39,000  Level FlightAware Transoceanic
11:36PM 25.2278 -70.1286 170° South 434 499 39,000  Level Miami Center
11:37PM 25.1220 -70.0782 168° South 447 514 39,000  Level FlightAware Transoceanic
11:37PM 25.1117 -70.1008 168° South 434 499 39,000  Level Miami Center
11:38PM 25.0000 -70.0500 185° South 447 514 39,000  Level FlightAware Transoceanic
11:38PM 24.9914 -70.0731 168° South 434 499 39,000  Level Miami Center
11:39PM 24.8887 -70.0614 185° South 447 514 39,000  Level FlightAware Transoceanic
11:39PM 24.8753 -70.0886 187° South 415 478 39,000  Level Miami Center
11:40PM 24.7773 -70.0728 185° South 447 514 39,000  Level FlightAware Transoceanic
11:40PM 24.7594 -70.1086 189° South 421 484 39,000  Level Miami Center
11:41PM 24.6394 -70.1289 189° South 426 490 39,000  Level Miami Center
11:42PM 24.5233 -70.1489 189° South 426 490 39,000  Level Miami Center
11:43PM 24.4075 -70.1667 188° South 426 490 39,000  Level Miami Center
11:44PM 24.2892 -70.1844 188° South 426 490 39,000  Level Miami Center
11:45PM 24.1689 -70.2022 188° South 426 490 39,000  Level Miami Center
11:46PM 24.0531 -70.2219 189° South 426 490 39,000  Level Miami Center
11:47PM 23.9369 -70.2417 189° South 426 490 39,000  Level Miami Center
11:48PM 23.8189 -70.2569 187° South 426 490 39,000  Level Miami Center
11:49PM 23.7050 -70.2811 191° South 421 484 39,000  Level Miami Center
11:50PM 23.5847 -70.2942 186° South 426 490 39,000  Level Miami Center
11:51PM 23.4667 -70.3161 190° South 431 496 39,000  Level Miami Center
11:52PM 23.3511 -70.3422 192° South 431 496 39,000  Level Miami Center
11:53PM 23.2303 -70.3506 184° South 431 496 39,000  Level Miami Center
11:54PM 23.1100 -70.3681 188° South 431 496 39,000  Level Miami Center
11:55PM 22.9903 -70.3922 191° South 436 502 39,000  Level Miami Center
11:56PM 22.8700 -70.4094 188° South 442 509 39,000  Level Miami Center
11:57PM 22.7644 -70.4303 190° South 442 509 39,000  Level Miami Center
11:58PM 22.6442 -70.4475 188° South 442 509 39,000  Level Miami Center
11:59PM 22.5219 -70.4669 188° South 442 509 39,000  Level Miami Center
12:00AM 22.3997 -70.4864 188° South 442 509 39,000  Level Miami Center
12:01AM 22.2817 -70.5058 189° South 442 509 39,000  Level Miami Center
12:02AM 22.1614 -70.5250 188° South 442 509 39,000  Level Miami Center
12:03AM 22.0433 -70.5439 188° South 442 509 39,000 -300 Level Miami Center
12:04AM 21.9189 -70.5611 187° South 442 509 38,500 -1,200 Descending Miami Center
12:05AM 21.8008 -70.5800 188° South 442 509 36,700 -1,860 Descending Miami Center
12:06AM 21.6806 -70.5992 188° South 442 509 34,800 -1,800 Descending Miami Center
12:07AM 21.5564 -70.6183 188° South 442 509 33,100 -1,800 Descending Miami Center
12:08AM 21.4372 -70.6150 179° South 442 509 31,300 -1,860 Descending Miami Center
12:09AM 21.3206 -70.6136 179° South 429 494 29,400 -1,860 Descending Miami Center
12:10AM 21.2097 -70.6100 178° South 416 479 27,600 -1,860 Descending Miami Center
12:11AM 21.0992 -70.6061 178° South 410 472 25,700 -1,920 Descending Miami Center
12:12AM 20.9928 -70.6044 179° South 404 465 23,800 -1,860 Descending Miami Center
12:13AM 20.8883 -70.5981 177° South 394 453 22,000 -1,860 Descending Miami Center
12:14AM 20.7875 -70.5783 170° South 381 438 20,100 -1,860 Descending Miami Center
12:15AM 20.6889 -70.5628 172° South 369 425 18,300 -1,860 Descending Miami Center
12:16AM 20.5922 -70.5453 170° South 364 419 16,400 -1,800 Descending Miami Center
12:17AM 20.4917 -70.5300 172° South 348 400 14,700 -1,620 Descending Miami Center
12:18AM 20.3994 -70.5208 175° South 342 394 13,200 -1,500 Descending Miami Center
12:20AM 20.2203 -70.5335 184° South  Level FlightAware Approximate
12:27AM 19.4000 -70.6000 North  Level FlightAware Approximate
12:28AM 19.4061 -70.6047 North  Level Estimated
12:29AM 19.4061 -70.6047 North  Level Estimated
12:30AM 19.4061 -70.6047 North  Level Estimated
12:31AM 19.4061 -70.6047 North  Level Estimated
12:32AM 19.4061 -70.6047 North  Level Estimated
12:33AM 19.4061 -70.6047 North  Level Estimated
12:34AM 19.4061 -70.6047 North  Level Estimated
12:35AM 19.4061 -70.6047 North  Level Estimated
12:36AM 19.4061 -70.6047 North  Level Estimated
12:37AM 19.4061 -70.6047 North  Level Estimated
12:38AM 19.4061 -70.6047 North  Level Estimated
12:39AM 19.4061 -70.6047 North  Level Estimated
12:40AM 19.4061 -70.6047 North  Level Estimated
12:41AM 19.4061 -70.6047 North  Level Estimated